createdAt,value
2022-11-29T00:01:23.915Z,66.23
2022-11-29T00:03:51.711Z,66.41
2022-11-29T00:06:24.775Z,67.47
2022-11-29T00:08:51.424Z,67.04
2022-11-29T00:11:39.353Z,67.22
2022-11-29T00:14:07.298Z,66.45
2022-11-29T00:16:34.457Z,65.78
2022-11-29T00:19:01.861Z,64.55
2022-11-29T00:21:29.471Z,64.51
2022-11-29T00:23:56.166Z,64.91
2022-11-29T00:26:22.720Z,63.47
2022-11-29T00:28:49.713Z,64.61
2022-11-29T00:31:27.413Z,64.37
2022-11-29T00:33:54.221Z,63.84
2022-11-29T00:36:20.813Z,63.05
2022-11-29T00:38:48.639Z,63.73
2022-11-29T00:41:15.594Z,64.84
2022-11-29T00:43:42.666Z,63.84
2022-11-29T00:46:09.777Z,64.55
2022-11-29T00:48:38.989Z,63.68
2022-11-29T00:51:06.544Z,63.03
2022-11-29T00:53:35.252Z,63.63
2022-11-29T00:56:02.932Z,63.12
2022-11-29T00:58:29.690Z,62.54
2022-11-29T01:00:56.758Z,62.90
2022-11-29T01:03:23.931Z,63.39
2022-11-29T01:05:51.990Z,62.01
2022-11-29T01:08:19.104Z,61.53
2022-11-29T01:10:45.873Z,61.47
2022-11-29T01:13:14.080Z,62.00
2022-11-29T01:15:41.640Z,63.55
2022-11-29T01:18:08.518Z,63.39
2022-11-29T01:20:35.234Z,63.20
2022-11-29T01:23:04.112Z,62.53
2022-11-29T01:25:32.130Z,62.89
2022-11-29T01:27:59.036Z,62.46
2022-11-29T01:30:25.854Z,62.52
2022-11-29T01:32:52.475Z,62.62
2022-11-29T01:35:19.142Z,61.75
2022-11-29T01:37:45.675Z,62.54
2022-11-29T01:40:14.032Z,62.09
2022-11-29T01:42:40.707Z,61.68
2022-11-29T01:45:26.758Z,60.52
2022-11-29T01:47:56.382Z,60.23
2022-11-29T01:50:23.171Z,59.60
2022-11-29T01:52:49.702Z,59.70
2022-11-29T01:55:16.561Z,59.65
2022-11-29T01:57:44.200Z,59.92
2022-11-29T02:00:17.653Z,60.18
2022-11-29T02:02:45.957Z,59.93
2022-11-29T02:05:15.069Z,60.04
2022-11-29T02:07:44.986Z,60.60
2022-11-29T02:10:12.379Z,60.80
2022-11-29T02:12:54.909Z,60.60
2022-11-29T02:15:30.469Z,61.09
2022-11-29T02:18:16.411Z,60.94
2022-11-29T02:21:01.927Z,60.16
2022-11-29T02:23:34.636Z,59.74
2022-11-29T02:26:03.958Z,59.77
2022-11-29T02:28:58.593Z,59.97
2022-11-29T02:31:44.657Z,61.11
2022-11-29T02:34:20.583Z,61.39
2022-11-29T02:37:27.741Z,61.21
2022-11-29T02:40:13.292Z,61.69
2022-11-29T02:43:06.477Z,61.27
2022-11-29T02:46:10.077Z,60.90
2022-11-29T02:48:54.247Z,61.56
2022-11-29T02:51:46.088Z,62.08
2022-11-29T02:54:34.028Z,61.25
2022-11-29T02:57:31.070Z,61.38
2022-11-29T03:00:03.890Z,61.10
2022-11-29T03:02:49.601Z,61.41
2022-11-29T03:05:40.307Z,61.98
2022-11-29T03:08:07.674Z,63.07
2022-11-29T03:10:47.678Z,62.20
2022-11-29T03:13:29.843Z,62.28
2022-11-29T03:16:11.605Z,61.85
2022-11-29T03:19:11.034Z,61.02
2022-11-29T03:22:09.897Z,60.69
2022-11-29T03:24:42.438Z,60.32
2022-11-29T03:27:43.677Z,61.78
2022-11-29T03:30:17.200Z,62.74
2022-11-29T03:32:50.587Z,62.43
2022-11-29T03:35:39.767Z,63.03
2022-11-29T03:38:12.411Z,62.10
2022-11-29T03:40:42.748Z,62.10
2022-11-29T03:43:18.115Z,61.42
2022-11-29T03:45:52.343Z,61.43
2022-11-29T03:48:29.335Z,61.09
2022-11-29T03:51:38.029Z,61.70
2022-11-29T03:54:12.916Z,61.32
2022-11-29T03:56:40.906Z,60.83
2022-11-29T04:00:09.325Z,61.32
2022-11-29T04:02:57.530Z,61.08
2022-11-29T04:05:39.412Z,61.26
2022-11-29T04:08:42.577Z,61.20
2022-11-29T04:11:58.945Z,61.21
2022-11-29T04:14:34.283Z,60.80
2022-11-29T04:17:16.259Z,60.83
2022-11-29T04:19:42.894Z,62.42
2022-11-29T04:22:37.059Z,62.18
2022-11-29T04:25:31.734Z,62.48
2022-11-29T04:28:20.436Z,62.01
2022-11-29T04:31:11.795Z,63.35
2022-11-29T04:33:47.859Z,62.68
2022-11-29T04:36:27.633Z,62.58
2022-11-29T04:39:04.911Z,61.26
2022-11-29T04:41:37.857Z,61.07
2022-11-29T04:44:38.544Z,61.47
2022-11-29T04:47:23.426Z,60.73
2022-11-29T04:49:56.378Z,61.31
2022-11-29T04:52:38.298Z,61.72
2022-11-29T04:55:43.045Z,62.72
2022-11-29T04:58:32.286Z,62.86
2022-11-29T05:01:17.911Z,63.29
2022-11-29T05:03:50.252Z,63.55
2022-11-29T05:06:56.170Z,62.31
2022-11-29T05:09:43.994Z,63.41
2022-11-29T05:12:18.939Z,63.11
2022-11-29T05:15:10.325Z,62.92
2022-11-29T05:17:58.685Z,64.56
2022-11-29T05:20:52.965Z,63.56
2022-11-29T05:23:53.627Z,62.90
2022-11-29T05:26:31.632Z,63.53
2022-11-29T05:29:24.573Z,62.81
2022-11-29T05:32:34.034Z,63.62
2022-11-29T05:35:28.767Z,62.79
2022-11-29T05:38:03.964Z,63.23
2022-11-29T05:40:49.335Z,63.67
2022-11-29T05:43:28.233Z,62.87
2022-11-29T05:46:13.612Z,63.38
2022-11-29T05:48:52.361Z,63.72
2022-11-29T05:51:22.228Z,63.20
2022-11-29T05:53:55.502Z,63.30
2022-11-29T05:56:34.114Z,62.90
2022-11-29T05:59:11.872Z,63.07
2022-11-29T06:01:44.597Z,62.23
2022-11-29T06:04:23.342Z,62.42
2022-11-29T06:07:26.414Z,64.21
2022-11-29T06:10:02.117Z,63.75
2022-11-29T06:12:36.628Z,63.63
2022-11-29T06:15:16.446Z,64.41
2022-11-29T06:18:08.524Z,62.34
2022-11-29T06:21:14.511Z,63.61
2022-11-29T06:24:13.771Z,64.07
2022-11-29T06:26:55.454Z,63.35
2022-11-29T06:29:46.669Z,63.43
2022-11-29T06:32:56.940Z,64.48
2022-11-29T06:35:39.848Z,63.96
2022-11-29T06:38:32.698Z,63.57
2022-11-29T06:41:02.144Z,62.97
2022-11-29T06:43:30.016Z,63.26
2022-11-29T06:46:24.777Z,63.39
2022-11-29T06:49:05.484Z,63.42
2022-11-29T06:51:35.323Z,62.72
2022-11-29T06:54:19.855Z,63.58
2022-11-29T06:57:08.443Z,63.51
2022-11-29T07:00:01.583Z,61.92
2022-11-29T07:02:55.978Z,63.15
2022-11-29T07:05:30.902Z,63.04
2022-11-29T07:08:02.619Z,63.83
2022-11-29T07:10:32.491Z,63.29
2022-11-29T07:12:59.665Z,63.60
2022-11-29T07:15:28.226Z,63.73
2022-11-29T07:18:10.598Z,64.94
2022-11-29T07:20:59.445Z,64.74
2022-11-29T07:23:43.735Z,63.85
2022-11-29T07:26:29.655Z,64.17
2022-11-29T07:28:59.454Z,64.06
2022-11-29T07:31:53.189Z,64.22
2022-11-29T07:34:39.130Z,65.90
2022-11-29T07:37:42.888Z,65.28
2022-11-29T07:40:16.643Z,63.64
2022-11-29T07:43:02.159Z,63.22
2022-11-29T07:45:36.271Z,65.42
2022-11-29T07:48:04.589Z,63.46
2022-11-29T07:50:31.807Z,64.56
2022-11-29T07:52:59.715Z,64.67
2022-11-29T07:55:27.255Z,63.24
2022-11-29T07:57:54.131Z,64.24
2022-11-29T08:00:21.434Z,65.62
2022-11-29T08:02:49.838Z,66.32
2022-11-29T08:05:17.883Z,67.40
2022-11-29T08:07:44.739Z,66.45
2022-11-29T08:10:14.432Z,64.29
2022-11-29T08:12:50.237Z,64.19
2022-11-29T08:15:22.221Z,63.96
2022-11-29T08:17:50.049Z,63.53
2022-11-29T08:20:17.634Z,63.48
2022-11-29T08:22:44.363Z,64.12
2022-11-29T08:25:11.991Z,66.63
2022-11-29T08:27:39.158Z,64.24
2022-11-29T08:30:07.011Z,63.09
2022-11-29T08:32:34.709Z,64.51
2022-11-29T08:35:01.318Z,64.66
2022-11-29T08:37:27.992Z,64.27
2022-11-29T08:39:55.354Z,65.15
2022-11-29T08:42:21.990Z,65.25
2022-11-29T08:44:48.653Z,65.00
2022-11-29T08:47:35.014Z,65.85
2022-11-29T08:50:14.231Z,66.54
2022-11-29T08:53:06.832Z,66.56
2022-11-29T08:55:48.507Z,65.72
2022-11-29T08:58:15.973Z,65.28
2022-11-29T09:00:45.544Z,65.29
2022-11-29T09:03:45.294Z,65.46
2022-11-29T09:06:15.024Z,66.76
2022-11-29T09:08:45.756Z,67.23
2022-11-29T09:11:18.361Z,63.32
2022-11-29T09:13:47.014Z,65.10
2022-11-29T09:16:18.059Z,64.30
2022-11-29T09:18:51.227Z,64.28
2022-11-29T09:21:18.723Z,66.33
2022-11-29T09:23:46.108Z,67.19
2022-11-29T09:26:18.819Z,67.97
2022-11-29T09:28:46.801Z,67.52
2022-11-29T09:31:15.667Z,65.69
2022-11-29T09:33:42.731Z,66.20
2022-11-29T09:36:11.484Z,65.40
2022-11-29T09:38:39.307Z,67.04
2022-11-29T09:41:59.628Z,66.21
2022-11-29T09:44:32.431Z,66.72
2022-11-29T09:47:02.901Z,64.60
2022-11-29T09:49:48.620Z,62.62
2022-11-29T09:52:32.644Z,61.55
2022-11-29T09:55:29.889Z,62.33
2022-11-29T09:58:03.930Z,61.82
2022-11-29T10:00:35.576Z,62.11
2022-11-29T10:03:14.781Z,64.70
2022-11-29T10:05:47.485Z,65.21
2022-11-29T10:08:16.244Z,64.23
2022-11-29T10:10:46.775Z,62.10
2022-11-29T10:13:21.573Z,61.80
2022-11-29T10:15:53.132Z,61.61
2022-11-29T10:18:28.864Z,61.57
2022-11-29T10:21:00.224Z,61.93
2022-11-29T10:23:35.923Z,61.83
2022-11-29T10:26:08.033Z,62.63
2022-11-29T10:28:36.824Z,61.67
2022-11-29T10:31:13.810Z,62.13
2022-11-29T10:33:41.294Z,61.56
2022-11-29T10:36:22.814Z,61.98
2022-11-29T10:38:53.193Z,61.77
2022-11-29T10:41:22.930Z,62.20
2022-11-29T10:43:51.544Z,62.69
2022-11-29T10:46:34.240Z,63.54
2022-11-29T10:49:04.815Z,62.62
2022-11-29T10:51:32.627Z,63.03
2022-11-29T10:54:33.382Z,62.73
2022-11-29T10:57:01.316Z,60.94
2022-11-29T10:59:30.472Z,62.30
2022-11-29T11:01:58.050Z,63.73
2022-11-29T11:04:45.220Z,62.95
2022-11-29T11:07:32.100Z,62.27
2022-11-29T11:09:59.762Z,60.30
2022-11-29T11:12:30.109Z,61.18
2022-11-29T11:15:30.477Z,62.80
2022-11-29T11:18:00.019Z,62.24
2022-11-29T11:20:33.572Z,60.67
2022-11-29T11:23:22.796Z,60.87
2022-11-29T11:26:00.815Z,61.88
2022-11-29T11:28:32.717Z,60.97
2022-11-29T11:31:08.314Z,61.33
2022-11-29T11:33:38.183Z,61.00
2022-11-29T11:36:12.484Z,60.14
2022-11-29T11:38:57.232Z,61.40
2022-11-29T11:41:55.565Z,61.49
2022-11-29T11:44:58.613Z,60.42
2022-11-29T11:47:27.129Z,59.99
2022-11-29T11:50:02.284Z,59.88
2022-11-29T11:52:50.159Z,60.71
2022-11-29T11:55:38.123Z,60.13
2022-11-29T11:58:09.866Z,61.24
2022-11-29T12:01:06.686Z,59.69
2022-11-29T12:03:57.126Z,60.61
2022-11-29T12:06:54.776Z,59.42
2022-11-29T12:09:27.381Z,60.32
2022-11-29T12:12:03.637Z,60.58
2022-11-29T12:14:30.911Z,60.43
2022-11-29T12:17:19.991Z,59.34
2022-11-29T12:19:59.561Z,59.14
2022-11-29T12:22:33.929Z,59.26
2022-11-29T12:25:05.071Z,59.58
2022-11-29T12:27:32.073Z,59.61
2022-11-29T12:29:58.777Z,60.48
2022-11-29T12:32:48.144Z,60.10
2022-11-29T12:35:30.176Z,60.26
2022-11-29T12:38:03.890Z,60.04
2022-11-29T12:40:42.469Z,59.00
2022-11-29T12:43:26.076Z,59.38
2022-11-29T12:46:11.065Z,59.28
2022-11-29T12:48:49.018Z,59.13
2022-11-29T12:51:22.118Z,57.93
2022-11-29T12:54:39.412Z,58.75
2022-11-29T12:57:23.879Z,60.56
2022-11-29T13:00:18.269Z,60.35
2022-11-29T13:02:56.709Z,59.83
2022-11-29T13:05:56.422Z,58.65
2022-11-29T13:08:49.380Z,58.30
2022-11-29T13:11:37.867Z,59.60
2022-11-29T13:17:34.100Z,59.80
2022-11-29T13:20:45.994Z,59.09
2022-11-29T13:24:09.598Z,58.59
2022-11-29T13:26:29.926Z,58.63
2022-11-29T13:28:57.920Z,58.60
2022-11-29T13:31:25.602Z,58.18
2022-11-29T13:33:59.992Z,57.74
2022-11-29T13:36:51.940Z,59.46
2022-11-29T13:39:38.238Z,60.82
2022-11-29T13:42:04.908Z,58.35
2022-11-29T13:44:58.060Z,58.78
2022-11-29T13:47:24.796Z,59.17
2022-11-29T13:50:06.144Z,58.05
2022-11-29T13:52:39.649Z,59.47
2022-11-29T13:55:12.178Z,60.70
2022-11-29T13:58:16.896Z,60.78
2022-11-29T14:00:44.268Z,61.29
2022-11-29T14:03:23.384Z,60.03
2022-11-29T14:05:54.568Z,59.68
2022-11-29T14:09:01.889Z,59.52
2022-11-29T14:11:48.857Z,61.59
2022-11-29T14:14:15.645Z,61.68
2022-11-29T14:16:42.208Z,62.46
2022-11-29T14:19:09.065Z,61.96
2022-11-29T14:22:02.351Z,59.87
2022-11-29T14:24:32.113Z,60.62
2022-11-29T14:27:21.599Z,59.50
2022-11-29T14:29:52.749Z,59.36
2022-11-29T14:32:44.404Z,60.08
2022-11-29T14:35:26.807Z,60.56
2022-11-29T14:38:06.480Z,59.65
2022-11-29T14:40:42.106Z,61.08
2022-11-29T14:43:29.028Z,62.97
2022-11-29T14:46:14.473Z,61.88
2022-11-29T14:48:58.397Z,61.38
2022-11-29T14:51:28.782Z,61.52
2022-11-29T14:54:13.401Z,59.57
2022-11-29T14:56:45.571Z,62.03
2022-11-29T14:59:43.671Z,61.29
2022-11-29T15:02:28.878Z,62.98
2022-11-29T15:04:57.425Z,63.09
2022-11-29T15:07:28.992Z,63.98
2022-11-29T15:10:00.065Z,64.26
2022-11-29T15:12:31.479Z,63.05
2022-11-29T15:15:13.886Z,63.28
2022-11-29T15:18:08.662Z,63.18
2022-11-29T15:20:58.395Z,63.33
2022-11-29T15:23:25.089Z,62.03
2022-11-29T15:25:53.268Z,61.04
2022-11-29T15:28:23.187Z,60.66
2022-11-29T15:31:00.506Z,60.10
2022-11-29T15:33:28.652Z,61.01
2022-11-29T15:36:04.726Z,61.55
2022-11-29T15:38:42.092Z,61.30
2022-11-29T15:41:19.427Z,60.59
2022-11-29T15:43:51.250Z,61.50
2022-11-29T15:46:25.606Z,61.72
2022-11-29T15:48:54.321Z,60.92
2022-11-29T15:51:34.654Z,60.57
2022-11-29T15:54:12.648Z,60.41
2022-11-29T15:56:44.955Z,61.45
2022-11-29T15:59:43.807Z,60.82
2022-11-29T16:02:21.731Z,61.41
2022-11-29T16:04:51.600Z,61.22
2022-11-29T16:07:20.999Z,61.66
2022-11-29T16:09:53.982Z,60.90
2022-11-29T16:12:21.260Z,60.19
2022-11-29T16:14:53.157Z,59.59
2022-11-29T16:17:21.031Z,59.48
2022-11-29T16:19:48.546Z,59.47
2022-11-29T16:22:21.615Z,59.97
2022-11-29T16:24:53.875Z,59.32
2022-11-29T16:27:22.709Z,59.40
2022-11-29T16:29:50.757Z,60.16
2022-11-29T16:32:33.134Z,59.55
2022-11-29T16:35:18.205Z,59.95
2022-11-29T16:37:46.520Z,60.02
2022-11-29T16:40:23.122Z,59.62
2022-11-29T16:43:23.960Z,59.59
2022-11-29T16:46:22.026Z,59.04
2022-11-29T16:48:50.139Z,59.10
2022-11-29T16:51:27.124Z,58.87
2022-11-29T16:53:55.838Z,59.44
2022-11-29T16:56:28.126Z,59.65
2022-11-29T16:59:17.189Z,59.87
2022-11-29T17:01:47.961Z,59.65
2022-11-29T17:04:24.339Z,59.29
2022-11-29T17:06:53.795Z,59.70
2022-11-29T17:09:27.387Z,60.08
2022-11-29T17:11:55.443Z,60.12
2022-11-29T17:14:22.210Z,60.09
2022-11-29T17:16:51.109Z,60.17
2022-11-29T17:19:23.902Z,59.52
2022-11-29T17:21:53.048Z,59.70
2022-11-29T17:24:22.586Z,59.54
2022-11-29T17:26:50.760Z,59.57
2022-11-29T17:29:18.865Z,59.52
2022-11-29T17:31:46.881Z,58.86
2022-11-29T17:34:13.647Z,59.28
2022-11-29T17:36:41.045Z,58.90
2022-11-29T17:39:11.212Z,59.21
2022-11-29T17:41:38.212Z,60.08
2022-11-29T17:44:04.955Z,60.93
2022-11-29T17:46:33.621Z,60.87
2022-11-29T17:49:01.892Z,60.93
2022-11-29T17:54:32.921Z,62.28
2022-11-29T17:57:00.858Z,61.28
2022-11-29T17:59:27.668Z,61.72
2022-11-29T18:01:54.308Z,62.40
2022-11-29T18:04:20.999Z,62.04
2022-11-29T18:06:50.505Z,61.70
2022-11-29T18:09:19.619Z,61.25
2022-11-29T18:11:48.978Z,61.30
2022-11-29T18:14:23.605Z,61.93
2022-11-29T18:16:51.438Z,61.68
2022-11-29T18:19:20.874Z,62.03
2022-11-29T18:21:50.487Z,62.03
2022-11-29T18:24:19.482Z,62.55
2022-11-29T18:26:46.258Z,61.80
2022-11-29T18:29:13.083Z,61.31
2022-11-29T18:31:41.030Z,61.82
2022-11-29T18:34:10.009Z,61.42
2022-11-29T18:36:43.244Z,61.55
2022-11-29T18:39:15.202Z,61.91
2022-11-29T18:41:49.923Z,61.92
2022-11-29T18:44:19.526Z,61.35
2022-11-29T18:46:46.776Z,61.41
2022-11-29T18:49:16.903Z,60.70
2022-11-29T18:51:45.545Z,61.13
2022-11-29T18:54:14.882Z,60.54
2022-11-29T18:56:42.655Z,59.81
2022-11-29T18:59:17.018Z,59.63
2022-11-29T19:01:46.747Z,59.53
2022-11-29T19:04:27.076Z,59.15
2022-11-29T19:06:54.219Z,58.67
2022-11-29T19:09:22.216Z,58.47
2022-11-29T19:11:49.896Z,58.71
2022-11-29T19:14:17.982Z,60.10
2022-11-29T19:16:46.570Z,60.74
2022-11-29T19:19:14.280Z,60.66
2022-11-29T19:21:41.573Z,60.90
2022-11-29T19:24:14.364Z,60.56
2022-11-29T19:26:44.494Z,60.93
2022-11-29T19:29:12.309Z,60.29
2022-11-29T19:31:39.467Z,61.05
2022-11-29T19:34:06.699Z,59.70
2022-11-29T19:36:33.580Z,61.58
2022-11-29T19:39:01.748Z,60.98
2022-11-29T19:41:32.522Z,62.25
2022-11-29T19:44:02.525Z,62.72
2022-11-29T19:46:34.861Z,62.06
2022-11-29T19:49:03.558Z,61.32
2022-11-29T19:51:30.860Z,60.93
2022-11-29T19:54:03.955Z,61.09
2022-11-29T19:56:31.637Z,60.00
2022-11-29T19:59:00.141Z,60.53
2022-11-29T20:01:37.744Z,60.05
2022-11-29T20:04:07.544Z,59.53
2022-11-29T20:06:34.971Z,59.88
2022-11-29T20:09:02.273Z,59.80
2022-11-29T20:11:29.360Z,60.04
2022-11-29T20:14:01.121Z,59.41
2022-11-29T20:16:29.316Z,61.22
2022-11-29T20:18:57.041Z,61.77
2022-11-29T20:21:29.053Z,61.71
2022-11-29T20:23:58.582Z,61.26
2022-11-29T20:26:26.722Z,60.71
2022-11-29T20:28:53.450Z,61.42
2022-11-29T20:31:22.988Z,61.43
2022-11-29T20:33:52.648Z,61.16
2022-11-29T20:36:28.776Z,60.27
2022-11-29T20:39:13.641Z,60.36
2022-11-29T20:41:58.731Z,59.77
2022-11-29T20:44:38.069Z,60.69
2022-11-29T20:47:54.261Z,60.67
2022-11-29T20:50:33.063Z,59.47
2022-11-29T20:53:14.731Z,59.59
2022-11-29T20:55:47.683Z,59.25
2022-11-29T20:58:15.308Z,58.97
2022-11-29T21:00:42.223Z,59.56
2022-11-29T21:03:12.432Z,62.14
2022-11-29T21:05:39.194Z,62.44
2022-11-29T21:08:06.095Z,63.32
2022-11-29T21:10:32.987Z,62.96
2022-11-29T21:12:59.916Z,63.17
2022-11-29T21:15:27.147Z,62.76
2022-11-29T21:18:01.049Z,63.04
2022-11-29T21:20:28.192Z,62.93
2022-11-29T21:23:19.374Z,62.67
2022-11-29T21:26:15.267Z,62.84
2022-11-29T21:28:51.184Z,62.14
2022-11-29T21:31:19.196Z,62.13
2022-11-29T21:33:46.861Z,62.59
2022-11-29T21:36:14.218Z,62.87
2022-11-29T21:38:42.316Z,61.67
2022-11-29T21:41:09.025Z,60.93
2022-11-29T21:44:04.801Z,60.28
2022-11-29T21:46:22.748Z,59.71
2022-11-29T21:48:51.494Z,59.23
2022-11-29T21:51:19.743Z,58.67
2022-11-29T21:53:46.464Z,58.25
2022-11-29T21:56:13.152Z,58.63
2022-11-29T21:58:40.146Z,58.06
2022-11-29T22:01:10.938Z,58.68
2022-11-29T22:03:39.527Z,59.41
2022-11-29T22:06:09.274Z,60.56
2022-11-29T22:08:39.501Z,59.10
2022-11-29T22:11:11.947Z,58.32
2022-11-29T22:14:02.889Z,59.57
2022-11-29T22:16:30.300Z,58.75
2022-11-29T22:18:57.094Z,57.09
2022-11-29T22:21:24.279Z,57.36
2022-11-29T22:23:52.980Z,57.86
2022-11-29T22:26:21.345Z,58.11
2022-11-29T22:28:47.938Z,57.49
2022-11-29T22:31:14.603Z,56.88
2022-11-29T22:33:41.250Z,57.09
2022-11-29T22:36:10.654Z,57.12
2022-11-29T22:38:38.216Z,57.61
2022-11-29T22:41:07.790Z,57.80
2022-11-29T22:43:40.553Z,58.14
2022-11-29T22:46:10.075Z,57.88
2022-11-29T22:48:39.268Z,58.12
2022-11-29T22:51:07.131Z,58.22
2022-11-29T22:53:35.153Z,57.68
2022-11-29T22:56:03.506Z,57.96
2022-11-29T22:58:31.444Z,57.22
2022-11-29T23:01:09.755Z,58.20
2022-11-29T23:03:38.539Z,57.81
2022-11-29T23:06:07.346Z,57.97
2022-11-29T23:08:34.436Z,57.86
2022-11-29T23:11:04.251Z,57.66
2022-11-29T23:13:35.798Z,57.89
2022-11-29T23:16:04.155Z,57.75
2022-11-29T23:18:31.242Z,57.33
2022-11-29T23:21:09.792Z,56.93
2022-11-29T23:23:37.178Z,57.00
2022-11-29T23:26:05.706Z,57.34
2022-11-29T23:28:34.529Z,57.62
2022-11-29T23:31:01.958Z,57.83
2022-11-29T23:33:28.752Z,57.55
2022-11-29T23:36:04.529Z,58.13
2022-11-29T23:38:31.297Z,58.33
2022-11-29T23:40:58.305Z,58.95
2022-11-29T23:43:25.053Z,59.10
2022-11-29T23:45:51.752Z,60.12
2022-11-29T23:48:18.570Z,59.02
2022-11-29T23:50:45.610Z,58.40
2022-11-29T23:53:13.716Z,58.92
2022-11-29T23:55:40.394Z,58.19
2022-11-29T23:58:06.971Z,59.01
